Time;durP1;ratioP1;P1;durP2;ratioP2;P2;SDS_P1;SDS_P2;PMS_P1;PMS_P2;Temp;Humidity;BMP_temperature;BMP_pressure;BME280_temperature;BME280_humidity;BME280_pressure;Samples;Min_cycle;Max_cycle;Signal;HPM_P1;HPM_P2
2022/04/01 00:00:12;;;;;;;168.40;35.53;;;;;;;;;;5052317;28;20212;-76
2022/04/01 00:02:41;;;;;;;258.83;34.90;;;;;;;;;;5050415;28;20296;-77
2022/04/01 00:05:08;;;;;;;155.93;33.13;;;;;;;;;;5051772;28;20201;-76
2022/04/01 00:07:36;;;;;;;208.73;34.13;;;;;;;;;;5052436;28;20227;-76
2022/04/01 00:10:03;;;;;;;181.47;34.63;;;;;;;;;;5052295;28;20296;-76
2022/04/01 00:12:30;;;;;;;189.90;35.23;;;;;;;;;;5050120;28;20225;-77
2022/04/01 00:14:57;;;;;;;124.03;32.33;;;;;;;;;;5051904;28;20299;-76
2022/04/01 00:17:25;;;;;;;199.90;35.97;;;;;;;;;;5051703;28;20239;-76
2022/04/01 00:19:53;;;;;;;176.10;34.40;;;;;;;;;;5052029;28;20308;-76
2022/04/01 00:22:20;;;;;;;124.83;33.77;;;;;;;;;;5051926;28;20197;-76
2022/04/01 00:24:47;;;;;;;175.93;34.60;;;;;;;;;;5052072;28;20215;-76
2022/04/01 00:27:15;;;;;;;195.80;35.80;;;;;;;;;;5051575;28;20243;-76
2022/04/01 00:29:42;;;;;;;197.47;35.77;;;;;;;;;;5052059;28;20236;-76
2022/04/01 00:32:09;;;;;;;189.67;36.43;;;;;;;;;;5051670;28;20201;-76
2022/04/01 00:34:36;;;;;;;166.97;35.27;;;;;;;;;;5051213;28;20212;-76
2022/04/01 00:37:05;;;;;;;180.33;36.73;;;;;;;;;;5051733;28;20221;-76
2022/04/01 00:39:32;;;;;;;214.40;36.83;;;;;;;;;;5051401;28;20209;-76
2022/04/01 00:42:00;;;;;;;197.97;36.37;;;;;;;;;;5051813;28;20209;-76
2022/04/01 00:44:28;;;;;;;176.57;33.80;;;;;;;;;;5051147;28;20240;-76
2022/04/01 00:46:56;;;;;;;145.23;32.57;;;;;;;;;;5051565;28;20218;-76
2022/04/01 00:49:26;;;;;;;151.90;33.33;;;;;;;;;;5051378;28;20347;-76
2022/04/01 00:51:55;;;;;;;162.27;32.53;;;;;;;;;;5051674;28;20259;-76
2022/04/01 00:54:24;;;;;;;157.83;31.63;;;;;;;;;;5051151;28;20263;-76
2022/04/01 00:56:51;;;;;;;177.00;33.37;;;;;;;;;;5051485;28;20296;-76
2022/04/01 00:59:18;;;;;;;137.73;32.10;;;;;;;;;;5051055;28;20227;-76
2022/04/01 01:01:47;;;;;;;139.50;31.30;;;;;;;;;;5051471;28;20312;-76
2022/04/01 01:04:15;;;;;;;221.57;33.23;;;;;;;;;;5051171;28;20209;-76
2022/04/01 01:06:43;;;;;;;218.50;35.80;;;;;;;;;;5051259;28;20308;-76
2022/04/01 01:09:11;;;;;;;145.20;32.57;;;;;;;;;;5051152;28;20200;-76
2022/04/01 01:11:40;;;;;;;202.33;32.70;;;;;;;;;;5051332;28;20295;-76
2022/04/01 01:14:08;;;;;;;137.40;33.37;;;;;;;;;;5050937;28;20224;-76
2022/04/01 01:16:36;;;;;;;293.90;36.60;;;;;;;;;;5050691;28;20220;-76
2022/04/01 01:19:04;;;;;;;159.47;33.33;;;;;;;;;;5051184;28;20228;-76
2022/04/01 01:21:32;;;;;;;180.27;34.27;;;;;;;;;;5051364;28;20284;-77
2022/04/01 01:24:03;;;;;;;130.70;32.20;;;;;;;;;;5051015;28;20201;-76
2022/04/01 01:26:32;;;;;;;146.63;31.13;;;;;;;;;;5050800;28;20205;-76
2022/04/01 01:28:59;;;;;;;174.40;30.50;;;;;;;;;;5049166;28;20323;-77
2022/04/01 01:31:27;;;;;;;203.13;31.57;;;;;;;;;;5051221;28;20211;-76
2022/04/01 01:33:55;;;;;;;147.20;30.90;;;;;;;;;;5050586;28;20236;-77
2022/04/01 01:36:24;;;;;;;112.17;29.50;;;;;;;;;;5050842;28;20201;-76
2022/04/01 01:38:52;;;;;;;168.47;31.73;;;;;;;;;;5050711;28;20323;-77
2022/04/01 01:41:19;;;;;;;176.90;32.67;;;;;;;;;;5051186;28;20212;-76
2022/04/01 01:43:48;;;;;;;144.07;30.90;;;;;;;;;;5050783;28;20209;-76
2022/04/01 01:46:15;;;;;;;155.73;30.93;;;;;;;;;;5050802;28;20292;-77
2022/04/01 01:48:42;;;;;;;182.00;29.43;;;;;;;;;;5053900;28;20212;-76
2022/04/01 01:56:35;;;;;;;148.23;31.43;;;;;;;;;;5036798;28;20264;-77
2022/04/01 01:59:05;;;;;;;187.17;33.00;;;;;;;;;;5054634;28;20224;-76
2022/04/01 02:01:32;;;;;;;122.10;31.33;;;;;;;;;;5054807;28;20201;-76
2022/04/01 02:04:01;;;;;;;136.47;31.57;;;;;;;;;;5054557;28;20197;-78
2022/04/01 02:06:29;;;;;;;174.87;31.80;;;;;;;;;;5054629;28;20209;-77
2022/04/01 02:08:58;;;;;;;169.30;31.23;;;;;;;;;;5054618;28;20221;-77
2022/04/01 02:11:25;;;;;;;231.70;33.07;;;;;;;;;;5054680;28;20205;-77
2022/04/01 02:13:53;;;;;;;134.70;30.33;;;;;;;;;;5054433;28;20224;-77
2022/04/01 02:16:22;;;;;;;183.27;33.37;;;;;;;;;;5054559;28;20205;-76
2022/04/01 02:18:50;;;;;;;214.60;32.93;;;;;;;;;;5053939;28;20232;-78
2022/04/01 02:21:17;;;;;;;108.70;30.40;;;;;;;;;;5054575;28;20206;-77
2022/04/01 02:23:45;;;;;;;99.40;30.33;;;;;;;;;;5053932;28;20211;-77
2022/04/01 02:26:13;;;;;;;100.97;30.53;;;;;;;;;;5054481;28;20205;-77
2022/04/01 02:28:41;;;;;;;134.83;31.63;;;;;;;;;;5053965;28;20248;-77
2022/04/01 02:31:08;;;;;;;127.23;30.83;;;;;;;;;;5053190;28;20284;-79
2022/04/01 02:33:37;;;;;;;138.63;32.23;;;;;;;;;;5052777;28;20201;-76
2022/04/01 02:36:10;;;;;;;108.13;29.90;;;;;;;;;;5057775;28;20288;-77
2022/04/01 02:38:38;;;;;;;117.50;32.10;;;;;;;;;;5053995;28;20249;-77
2022/04/01 02:41:05;;;;;;;116.23;31.53;;;;;;;;;;5052066;28;20223;-76
2022/04/01 02:43:33;;;;;;;124.13;31.63;;;;;;;;;;5051455;28;20201;-77
2022/04/01 02:46:00;;;;;;;151.03;33.30;;;;;;;;;;5053388;28;20221;-77
2022/04/01 02:48:27;;;;;;;181.47;32.90;;;;;;;;;;5053542;28;20228;-77
2022/04/01 02:50:56;;;;;;;112.97;32.10;;;;;;;;;;5054158;28;20209;-77
2022/04/01 02:53:23;;;;;;;114.37;31.63;;;;;;;;;;5053658;28;20201;-77
2022/04/01 02:55:50;;;;;;;92.73;32.07;;;;;;;;;;5048993;28;20297;-79
2022/04/01 02:58:18;;;;;;;133.23;31.53;;;;;;;;;;5052810;28;20602;-77
2022/04/01 03:00:46;;;;;;;90.60;30.83;;;;;;;;;;5053960;28;20209;-77
2022/04/01 03:03:13;;;;;;;92.47;31.60;;;;;;;;;;5053599;28;20209;-76
2022/04/01 03:05:42;;;;;;;110.90;30.40;;;;;;;;;;5053545;28;20207;-77
2022/04/01 03:08:11;;;;;;;108.07;31.33;;;;;;;;;;5053162;28;20245;-77
2022/04/01 03:10:39;;;;;;;129.53;31.53;;;;;;;;;;5053432;28;20201;-77
2022/04/01 03:13:08;;;;;;;110.73;30.47;;;;;;;;;;5053265;28;20236;-78
2022/04/01 03:15:36;;;;;;;104.43;30.93;;;;;;;;;;5053174;28;20193;-77
2022/04/01 03:18:04;;;;;;;121.63;31.27;;;;;;;;;;5054929;28;20217;-77
2022/04/01 03:20:33;;;;;;;110.17;31.63;;;;;;;;;;5057863;28;20255;-76
2022/04/01 03:23:00;;;;;;;121.83;37.10;;;;;;;;;;5053328;28;20209;-76
2022/04/01 03:25:32;;;;;;;186.60;41.93;;;;;;;;;;5052606;28;20287;-75
2022/04/01 03:28:00;;;;;;;200.33;38.17;;;;;;;;;;5097238;22;20243;-80
2022/04/01 03:30:28;;;;;;;136.47;36.83;;;;;;;;;;5060811;28;20208;-80
2022/04/01 03:32:56;;;;;;;146.67;40.53;;;;;;;;;;5058643;28;20198;-80
2022/04/01 03:35:27;;;;;;;197.03;43.27;;;;;;;;;;5065521;28;20211;-81
2022/04/01 03:37:58;;;;;;;147.97;41.70;;;;;;;;;;5077872;28;20278;-81
2022/04/01 03:40:32;;;;;;;185.57;42.10;;;;;;;;;;5080461;28;20205;-81
2022/04/01 03:42:59;;;;;;;158.87;41.03;;;;;;;;;;5082524;28;20211;-81
2022/04/01 03:45:27;;;;;;;175.67;39.87;;;;;;;;;;5079322;28;20207;-81
2022/04/01 03:48:00;;;;;;;172.47;41.33;;;;;;;;;;5079604;28;20228;-81
2022/04/01 03:50:31;;;;;;;173.93;40.10;;;;;;;;;;5080962;28;20232;-80
2022/04/01 03:53:01;;;;;;;207.97;40.47;;;;;;;;;;5055917;28;20215;-80
2022/04/01 03:55:32;;;;;;;171.77;39.87;;;;;;;;;;5058816;28;20224;-80
2022/04/01 03:58:02;;;;;;;209.03;40.53;;;;;;;;;;5065103;28;20239;-80
2022/04/01 04:00:30;;;;;;;178.60;38.77;;;;;;;;;;5077705;28;20287;-80
2022/04/01 04:02:58;;;;;;;165.93;39.43;;;;;;;;;;5064929;28;20201;-79
2022/04/01 04:05:27;;;;;;;187.23;38.67;;;;;;;;;;5054681;28;20197;-79
2022/04/01 04:07:56;;;;;;;173.00;37.97;;;;;;;;;;5057530;28;20229;-81
2022/04/01 04:10:27;;;;;;;146.83;37.40;;;;;;;;;;5057589;28;20298;-82
2022/04/01 04:12:57;;;;;;;211.70;37.83;;;;;;;;;;5057949;28;20201;-79
2022/04/01 04:15:26;;;;;;;159.13;37.43;;;;;;;;;;5062653;28;20236;-79
2022/04/01 04:17:55;;;;;;;206.77;35.07;;;;;;;;;;5047746;28;20217;-79
2022/04/01 04:20:28;;;;;;;145.97;35.70;;;;;;;;;;5048756;28;20228;-79
2022/04/01 04:23:00;;;;;;;145.20;35.20;;;;;;;;;;5065103;28;20200;-80
2022/04/01 04:25:33;;;;;;;202.30;35.90;;;;;;;;;;5073883;28;20205;-79
2022/04/01 04:28:01;;;;;;;159.30;34.63;;;;;;;;;;5070466;28;20278;-82
2022/04/01 04:30:32;;;;;;;129.53;32.30;;;;;;;;;;5069858;28;20206;-80
2022/04/01 04:33:04;;;;;;;167.23;33.90;;;;;;;;;;5057413;28;20236;-80
2022/04/01 04:35:31;;;;;;;160.17;33.17;;;;;;;;;;5060549;28;20205;-80
2022/04/01 04:37:59;;;;;;;176.40;33.73;;;;;;;;;;5084000;28;20219;-80
2022/04/01 04:40:28;;;;;;;143.97;33.93;;;;;;;;;;5063073;28;20251;-79
2022/04/01 04:42:56;;;;;;;188.57;33.20;;;;;;;;;;5056487;28;20192;-80
2022/04/01 04:45:26;;;;;;;194.00;36.00;;;;;;;;;;5059161;28;20196;-80
2022/04/01 04:47:54;;;;;;;203.80;34.27;;;;;;;;;;5052853;28;20273;-80
2022/04/01 04:50:22;;;;;;;174.67;34.13;;;;;;;;;;5056440;28;20216;-80
2022/04/01 04:52:50;;;;;;;182.27;34.70;;;;;;;;;;5051347;28;20671;-79
2022/04/01 04:55:18;;;;;;;196.77;35.57;;;;;;;;;;5054823;28;20197;-80
2022/04/01 04:57:46;;;;;;;228.83;37.83;;;;;;;;;;5059301;28;20223;-80
2022/04/01 05:00:16;;;;;;;223.37;40.40;;;;;;;;;;5057258;28;20217;-80
2022/04/01 05:02:51;;;;;;;215.30;38.70;;;;;;;;;;5060166;28;20203;-79
2022/04/01 05:05:25;;;;;;;264.87;42.37;;;;;;;;;;5054673;28;20289;-79
2022/04/01 05:08:05;;;;;;;160.90;37.07;;;;;;;;;;5051284;28;20221;-79
2022/04/01 05:10:41;;;;;;;173.90;38.20;;;;;;;;;;5052853;28;20198;-78
2022/04/01 05:13:13;;;;;;;239.17;38.60;;;;;;;;;;5051695;28;20212;-77
2022/04/01 05:15:40;;;;;;;290.40;40.00;;;;;;;;;;5052575;28;20205;-77
2022/04/01 05:18:14;;;;;;;217.40;37.73;;;;;;;;;;5053258;28;20265;-81
2022/04/01 05:20:48;;;;;;;172.87;35.50;;;;;;;;;;5058441;28;20231;-79
2022/04/01 05:23:36;;;;;;;;;;;;;;;;;;;;;
2022/04/01 05:29:13;;;;;;;120.77;34.17;;;;;;;;;;5045428;28;20225;-80
2022/04/01 05:31:46;;;;;;;168.43;35.33;;;;;;;;;;5051955;28;20215;-80
2022/04/01 05:34:30;;;;;;;180.37;37.40;;;;;;;;;;5054382;28;20201;-80
2022/04/01 05:37:02;;;;;;;199.83;37.40;;;;;;;;;;5055709;28;20244;-80
2022/04/01 05:39:32;;;;;;;234.67;38.10;;;;;;;;;;5054186;28;20229;-81
2022/04/01 05:42:01;;;;;;;122.60;36.63;;;;;;;;;;5055548;28;20201;-81
2022/04/01 05:44:32;;;;;;;140.90;36.60;;;;;;;;;;5058987;28;20197;-79
2022/04/01 05:47:01;;;;;;;206.10;39.63;;;;;;;;;;5054636;28;20206;-81
2022/04/01 05:49:32;;;;;;;158.53;38.03;;;;;;;;;;5054926;28;20221;-81
2022/04/01 05:52:00;;;;;;;168.73;35.27;;;;;;;;;;5055030;28;20200;-80
2022/04/01 05:54:30;;;;;;;130.03;35.57;;;;;;;;;;5054766;28;20269;-80
2022/04/01 05:59:54;;;;;;;145.60;34.67;;;;;;;;;;5063756;28;20224;-82
2022/04/01 06:02:35;;;;;;;184.73;35.20;;;;;;;;;;5062455;28;20197;-81
2022/04/01 06:05:18;;;;;;;157.40;33.33;;;;;;;;;;5071563;28;20204;-81
2022/04/01 06:07:57;;;;;;;225.23;35.93;;;;;;;;;;5068285;28;20228;-81
2022/04/01 06:10:38;;;;;;;127.30;32.30;;;;;;;;;;5075193;28;20208;-81
2022/04/01 06:13:27;;;;;;;161.13;34.63;;;;;;;;;;5065729;28;20654;-81
2022/04/01 06:19:01;;;;;;;151.80;35.63;;;;;;;;;;5073126;28;20227;-81
2022/04/01 06:21:41;;;;;;;165.87;35.83;;;;;;;;;;5074581;28;20205;-81
2022/04/01 06:24:22;;;;;;;208.80;37.10;;;;;;;;;;5075073;28;20212;-81
2022/04/01 06:27:17;;;;;;;274.23;43.87;;;;;;;;;;5073419;28;20205;-81
2022/04/01 06:33:08;;;;;;;167.67;36.97;;;;;;;;;;5068389;28;20216;-81
2022/04/01 06:35:38;;;;;;;230.40;42.67;;;;;;;;;;5078193;28;20310;-80
2022/04/01 06:38:15;;;;;;;210.30;41.70;;;;;;;;;;5072561;28;20224;-81
2022/04/01 06:44:00;;;;;;;252.27;42.50;;;;;;;;;;5017723;28;20207;-80
2022/04/01 06:49:42;;;;;;;368.43;46.67;;;;;;;;;;5054802;28;20213;-79
2022/04/01 06:52:39;;;;;;;173.70;41.03;;;;;;;;;;5059814;28;20219;-80
2022/04/01 06:55:13;;;;;;;190.63;40.17;;;;;;;;;;5050936;28;20209;-80
2022/04/01 06:58:11;;;;;;;155.90;38.23;;;;;;;;;;5059800;28;20225;-80
2022/04/01 07:00:41;;;;;;;192.70;41.17;;;;;;;;;;5058212;28;20293;-81
2022/04/01 07:03:09;;;;;;;188.57;40.87;;;;;;;;;;5063269;28;20205;-80
2022/04/01 07:05:39;;;;;;;277.57;44.60;;;;;;;;;;5060867;28;20200;-80
2022/04/01 07:08:07;;;;;;;289.73;43.10;;;;;;;;;;5041518;22;20231;-80
2022/04/01 07:10:35;;;;;;;312.47;45.33;;;;;;;;;;4996132;28;20200;-80
2022/04/01 07:13:03;;;;;;;251.70;45.00;;;;;;;;;;4998386;28;20227;-81
2022/04/01 07:15:32;;;;;;;174.10;42.17;;;;;;;;;;4997283;28;20203;-80
2022/04/01 07:18:01;;;;;;;229.67;42.10;;;;;;;;;;5006623;28;20280;-80
2022/04/01 07:20:29;;;;;;;275.73;44.20;;;;;;;;;;5022760;28;20250;-80
2022/04/01 07:22:56;;;;;;;149.93;41.27;;;;;;;;;;5017878;28;20656;-80
2022/04/01 07:25:28;;;;;;;209.43;42.13;;;;;;;;;;5019985;28;20218;-80
2022/04/01 07:28:04;;;;;;;215.30;42.90;;;;;;;;;;5017426;28;20241;-79
2022/04/01 07:30:33;;;;;;;170.80;41.10;;;;;;;;;;5018665;28;20210;-80
2022/04/01 07:33:01;;;;;;;136.40;39.80;;;;;;;;;;5012505;28;20213;-80
2022/04/01 07:35:29;;;;;;;220.93;41.97;;;;;;;;;;5008574;28;20258;-81
2022/04/01 07:37:57;;;;;;;187.00;41.33;;;;;;;;;;5006622;28;20218;-81
2022/04/01 07:40:26;;;;;;;127.50;38.13;;;;;;;;;;5018638;28;20222;-81
2022/04/01 07:43:00;;;;;;;194.77;41.43;;;;;;;;;;5018269;28;20228;-81
2022/04/01 07:45:37;;;;;;;210.80;42.10;;;;;;;;;;5018117;28;20221;-87
2022/04/01 07:48:06;;;;;;;231.57;43.00;;;;;;;;;;5014145;28;20233;-81
2022/04/01 07:50:33;;;;;;;143.87;39.83;;;;;;;;;;5018451;28;20206;-81
2022/04/01 07:53:08;;;;;;;218.13;40.77;;;;;;;;;;5017664;28;20212;-81
2022/04/01 07:55:38;;;;;;;183.27;40.03;;;;;;;;;;5017428;28;20210;-82
2022/04/01 07:58:09;;;;;;;289.17;44.67;;;;;;;;;;5017488;28;20234;-82
2022/04/01 08:00:39;;;;;;;199.67;43.73;;;;;;;;;;5018173;28;20223;-81
2022/04/01 08:03:06;;;;;;;314.20;46.43;;;;;;;;;;5017656;28;20210;-82
2022/04/01 08:05:35;;;;;;;284.33;45.27;;;;;;;;;;5017568;28;20194;-81
2022/04/01 08:08:03;;;;;;;199.07;44.43;;;;;;;;;;5024209;28;20252;-82
2022/04/01 08:10:33;;;;;;;389.87;49.03;;;;;;;;;;5037889;28;20197;-81
2022/04/01 08:13:01;;;;;;;272.20;46.23;;;;;;;;;;5036842;28;20232;-81
2022/04/01 08:15:32;;;;;;;224.03;44.83;;;;;;;;;;5036419;28;20206;-81
2022/04/01 08:17:59;;;;;;;334.53;46.30;;;;;;;;;;5038093;28;20232;-81
2022/04/01 08:20:27;;;;;;;132.83;41.23;;;;;;;;;;5028001;28;20257;-81
2022/04/01 08:23:00;;;;;;;194.07;42.00;;;;;;;;;;5028634;28;20225;-82
2022/04/01 08:25:29;;;;;;;177.87;40.63;;;;;;;;;;5028762;28;20201;-81
2022/04/01 08:27:56;;;;;;;165.73;39.90;;;;;;;;;;5028126;28;20213;-81
2022/04/01 08:30:26;;;;;;;152.17;38.47;;;;;;;;;;5035711;28;20273;-78
2022/04/01 08:32:54;;;;;;;168.90;39.60;;;;;;;;;;5027192;28;20202;-78
2022/04/01 08:35:21;;;;;;;171.03;39.37;;;;;;;;;;5029578;28;20206;-82
2022/04/01 08:37:49;;;;;;;201.17;38.53;;;;;;;;;;5031048;28;20217;-82
2022/04/01 08:40:17;;;;;;;148.37;38.57;;;;;;;;;;5033095;28;20309;-82
2022/04/01 08:42:49;;;;;;;248.97;39.00;;;;;;;;;;5029691;28;20202;-79
2022/04/01 08:45:20;;;;;;;157.47;37.03;;;;;;;;;;5026234;28;20202;-79
2022/04/01 08:47:50;;;;;;;145.73;37.23;;;;;;;;;;5029093;28;20312;-79
2022/04/01 08:50:20;;;;;;;170.87;36.50;;;;;;;;;;5032100;28;20213;-79
2022/04/01 08:52:47;;;;;;;167.10;34.70;;;;;;;;;;5032370;28;20210;-79
2022/04/01 08:55:15;;;;;;;219.37;37.23;;;;;;;;;;5031685;28;20194;-78
2022/04/01 08:57:42;;;;;;;171.70;35.03;;;;;;;;;;5032937;28;20230;-80
2022/04/01 09:00:29;;;;;;;157.63;35.03;;;;;;;;;;5033964;28;20222;-78
2022/04/01 09:03:00;;;;;;;168.07;36.20;;;;;;;;;;5033856;28;20267;-78
2022/04/01 09:05:29;;;;;;;175.50;35.83;;;;;;;;;;5032458;28;20205;-78
2022/04/01 09:08:00;;;;;;;149.47;34.13;;;;;;;;;;5033861;28;20229;-77
2022/04/01 09:10:28;;;;;;;204.43;36.53;;;;;;;;;;5033438;28;20287;-78
2022/04/01 09:12:55;;;;;;;163.10;36.53;;;;;;;;;;5033128;28;20213;-78
2022/04/01 09:15:23;;;;;;;131.50;35.73;;;;;;;;;;5033618;28;20205;-79
2022/04/01 09:17:52;;;;;;;187.80;35.17;;;;;;;;;;5032884;28;20226;-79
2022/04/01 09:20:19;;;;;;;174.47;36.30;;;;;;;;;;5026258;28;20249;-78
2022/04/01 09:22:48;;;;;;;177.97;37.40;;;;;;;;;;5030173;28;20218;-78
2022/04/01 09:25:16;;;;;;;166.63;37.67;;;;;;;;;;5033041;28;20522;-78
2022/04/01 09:27:45;;;;;;;138.20;37.87;;;;;;;;;;5074684;22;20234;-75
2022/04/01 09:30:13;;;;;;;204.20;38.80;;;;;;;;;;5068725;28;20240;-75
2022/04/01 09:32:41;;;;;;;213.00;38.33;;;;;;;;;;5072236;28;20216;-75
2022/04/01 09:35:10;;;;;;;185.30;38.40;;;;;;;;;;5072752;28;20274;-76
2022/04/01 09:37:41;;;;;;;169.23;36.47;;;;;;;;;;5071977;28;20205;-76
2022/04/01 09:40:11;;;;;;;159.57;37.43;;;;;;;;;;5071640;28;20230;-76
2022/04/01 09:42:39;;;;;;;220.33;37.30;;;;;;;;;;5071870;28;20235;-76
2022/04/01 09:45:07;;;;;;;170.20;37.93;;;;;;;;;;5072111;28;20236;-76
2022/04/01 09:47:38;;;;;;;246.97;38.40;;;;;;;;;;5071774;28;20210;-76
2022/04/01 09:50:13;;;;;;;192.97;38.80;;;;;;;;;;5069367;28;20193;-76
2022/04/01 09:52:41;;;;;;;196.90;35.67;;;;;;;;;;5067871;28;20196;-76
2022/04/01 09:55:10;;;;;;;220.97;38.53;;;;;;;;;;5071851;28;20299;-75
2022/04/01 09:57:38;;;;;;;172.47;37.47;;;;;;;;;;5070088;28;20239;-76
2022/04/01 10:00:09;;;;;;;289.30;38.53;;;;;;;;;;5071548;28;20203;-76
2022/04/01 10:02:37;;;;;;;169.60;30.90;;;;;;;;;;5069414;28;20239;-76
2022/04/01 10:05:05;;;;;;;134.37;28.50;;;;;;;;;;5070892;28;20574;-76
2022/04/01 10:07:34;;;;;;;87.63;24.53;;;;;;;;;;5070526;28;20200;-75
2022/04/01 10:10:02;;;;;;;149.53;26.17;;;;;;;;;;5074877;28;20209;-76
2022/04/01 10:12:32;;;;;;;93.00;23.43;;;;;;;;;;5073386;28;20204;-76
2022/04/01 10:15:01;;;;;;;123.33;23.63;;;;;;;;;;5074482;28;20300;-76
2022/04/01 10:17:30;;;;;;;94.97;22.70;;;;;;;;;;5074237;28;20196;-77
2022/04/01 10:19:58;;;;;;;112.47;23.27;;;;;;;;;;5074993;28;20192;-79
2022/04/01 10:22:29;;;;;;;98.90;22.70;;;;;;;;;;5081020;28;20239;-80
2022/04/01 10:25:04;;;;;;;75.77;21.80;;;;;;;;;;5084450;28;20204;-80
2022/04/01 10:27:37;;;;;;;98.03;21.07;;;;;;;;;;5078895;28;20223;-79
2022/04/01 10:30:05;;;;;;;54.50;18.63;;;;;;;;;;5079792;28;20196;-79
2022/04/01 10:32:42;;;;;;;70.83;20.80;;;;;;;;;;5077468;28;20196;-80
2022/04/01 10:35:21;;;;;;;83.37;20.77;;;;;;;;;;5076025;28;20234;-78
2022/04/01 10:37:53;;;;;;;66.73;18.77;;;;;;;;;;5075134;28;20231;-79
2022/04/01 10:40:22;;;;;;;75.97;19.13;;;;;;;;;;5071195;28;20220;-78
2022/04/01 10:42:51;;;;;;;78.73;18.63;;;;;;;;;;5071208;28;20266;-78
2022/04/01 10:45:26;;;;;;;86.10;20.27;;;;;;;;;;5076258;28;20189;-78
2022/04/01 10:53:36;;;;;;;58.00;18.70;;;;;;;;;;5073501;28;20246;-77
2022/04/01 10:56:31;;;;;;;43.93;19.40;;;;;;;;;;5073413;28;20196;-79
2022/04/01 10:59:05;;;;;;;50.03;18.80;;;;;;;;;;5028528;28;20266;-77
2022/04/01 11:01:36;;;;;;;58.93;20.10;;;;;;;;;;5074152;28;20311;-77
2022/04/01 11:04:04;;;;;;;57.10;20.47;;;;;;;;;;5075370;28;20200;-77
2022/04/01 11:06:35;;;;;;;74.67;21.13;;;;;;;;;;5076123;28;20283;-86
2022/04/01 11:09:07;;;;;;;46.27;18.80;;;;;;;;;;5080320;28;20270;-83
2022/04/01 11:11:35;;;;;;;50.67;19.77;;;;;;;;;;5073480;28;20212;-82
2022/04/01 11:14:06;;;;;;;66.97;19.23;;;;;;;;;;5078119;28;20208;-80
2022/04/01 11:16:46;;;;;;;50.63;18.97;;;;;;;;;;5077846;28;20235;-80
2022/04/01 11:19:20;;;;;;;71.13;20.07;;;;;;;;;;5078777;28;20243;-78
2022/04/01 11:21:48;;;;;;;79.40;21.80;;;;;;;;;;5077952;28;20224;-78
2022/04/01 11:24:23;;;;;;;62.97;21.57;;;;;;;;;;5076650;28;20209;-78
2022/04/01 11:26:50;;;;;;;43.43;20.00;;;;;;;;;;5076577;28;20325;-80
2022/04/01 11:29:21;;;;;;;50.63;21.73;;;;;;;;;;5080334;28;20236;-80
2022/04/01 11:31:48;;;;;;;46.20;21.30;;;;;;;;;;5075317;28;20196;-80
2022/04/01 11:34:16;;;;;;;52.17;22.43;;;;;;;;;;5076605;28;20196;-79
2022/04/01 11:36:47;;;;;;;53.67;23.27;;;;;;;;;;5074810;28;20201;-80
2022/04/01 11:39:19;;;;;;;69.83;23.63;;;;;;;;;;5073664;28;20221;-78
2022/04/01 11:41:51;;;;;;;50.40;23.97;;;;;;;;;;5076847;28;20221;-78
2022/04/01 11:44:20;;;;;;;62.13;25.87;;;;;;;;;;5071406;28;20200;-78
2022/04/01 11:46:59;;;;;;;64.17;26.37;;;;;;;;;;5078041;28;20193;-79
2022/04/01 11:49:28;;;;;;;59.97;25.93;;;;;;;;;;5077388;28;20247;-79
2022/04/01 11:51:55;;;;;;;70.97;26.83;;;;;;;;;;5079590;28;20193;-79
2022/04/01 11:54:22;;;;;;;78.03;27.00;;;;;;;;;;5076658;28;20212;-79
2022/04/01 11:56:59;;;;;;;92.00;28.17;;;;;;;;;;5069783;28;20212;-78
2022/04/01 11:59:28;;;;;;;77.30;26.80;;;;;;;;;;5069210;28;20224;-77
2022/04/01 12:02:00;;;;;;;69.03;28.27;;;;;;;;;;5076420;28;20225;-80
2022/04/01 12:04:32;;;;;;;69.07;29.33;;;;;;;;;;5076646;28;20197;-80
2022/04/01 12:10:14;;;;;;;78.00;28.60;;;;;;;;;;5083292;28;20223;-80
2022/04/01 12:12:42;;;;;;;76.63;28.53;;;;;;;;;;5075214;28;20205;-77
2022/04/01 12:15:13;;;;;;;120.77;30.37;;;;;;;;;;5075124;28;20291;-79
2022/04/01 12:17:49;;;;;;;113.90;30.50;;;;;;;;;;5075505;28;20215;-77
2022/04/01 12:20:20;;;;;;;99.87;30.53;;;;;;;;;;5071899;28;20200;-77
2022/04/01 12:22:50;;;;;;;89.60;29.13;;;;;;;;;;5070114;28;20221;-77
2022/04/01 12:25:19;;;;;;;70.20;28.17;;;;;;;;;;5074579;28;20239;-78
2022/04/01 12:27:53;;;;;;;80.87;30.90;;;;;;;;;;5075356;28;20243;-77
2022/04/01 12:30:31;;;;;;;86.73;30.67;;;;;;;;;;5074733;28;20238;-78
2022/04/01 12:33:04;;;;;;;102.70;31.97;;;;;;;;;;5073603;28;20206;-78
2022/04/01 12:35:31;;;;;;;91.43;32.93;;;;;;;;;;5074008;28;20200;-78
2022/04/01 12:38:06;;;;;;;110.13;32.83;;;;;;;;;;5075595;28;20307;-79
2022/04/01 12:40:48;;;;;;;151.70;32.80;;;;;;;;;;5068240;28;20200;-78
2022/04/01 12:43:33;;;;;;;68.27;27.13;;;;;;;;;;5072537;28;20215;-77
2022/04/01 12:46:03;;;;;;;75.73;27.20;;;;;;;;;;5072221;28;20204;-79
2022/04/01 12:48:31;;;;;;;89.13;26.97;;;;;;;;;;5074411;28;20259;-79
2022/04/01 12:51:02;;;;;;;84.93;28.13;;;;;;;;;;5072389;28;20205;-76
2022/04/01 12:53:30;;;;;;;88.10;28.07;;;;;;;;;;5072853;28;20204;-78
2022/04/01 12:56:12;;;;;;;110.93;29.17;;;;;;;;;;5066169;28;20206;-76
2022/04/01 12:58:50;;;;;;;79.93;28.33;;;;;;;;;;5071385;28;20221;-77
2022/04/01 13:01:22;;;;;;;131.73;33.37;;;;;;;;;;5070127;28;20246;-79
2022/04/01 13:03:49;;;;;;;108.47;33.80;;;;;;;;;;5073354;28;20710;-78
2022/04/01 13:06:17;;;;;;;93.07;31.83;;;;;;;;;;5072068;28;20284;-78
2022/04/01 13:08:45;;;;;;;111.80;34.07;;;;;;;;;;5072930;28;20220;-76
2022/04/01 13:11:13;;;;;;;103.60;34.30;;;;;;;;;;5073677;28;20236;-77
2022/04/01 13:13:40;;;;;;;114.23;34.47;;;;;;;;;;5068475;28;20239;-77
2022/04/01 13:16:07;;;;;;;83.40;33.23;;;;;;;;;;5072792;28;20236;-76
2022/04/01 13:18:36;;;;;;;121.57;34.43;;;;;;;;;;5072841;28;20219;-77
2022/04/01 13:21:03;;;;;;;155.67;37.63;;;;;;;;;;5073770;28;20670;-77
2022/04/01 13:23:31;;;;;;;111.80;36.63;;;;;;;;;;5074033;28;20208;-77
2022/04/01 13:26:00;;;;;;;158.40;39.73;;;;;;;;;;5071774;28;20204;-77
2022/04/01 13:28:27;;;;;;;109.23;36.50;;;;;;;;;;5070389;28;20224;-77
2022/04/01 13:30:54;;;;;;;119.00;37.53;;;;;;;;;;5069050;28;20205;-77
2022/04/01 13:33:21;;;;;;;122.17;37.60;;;;;;;;;;5068614;28;20201;-77
2022/04/01 13:35:50;;;;;;;133.10;38.07;;;;;;;;;;5072238;28;20254;-78
2022/04/01 13:38:17;;;;;;;105.63;36.83;;;;;;;;;;5070297;28;20266;-75
2022/04/01 13:40:48;;;;;;;123.97;35.50;;;;;;;;;;5072529;28;20196;-75
2022/04/01 13:43:15;;;;;;;110.97;36.57;;;;;;;;;;5074042;28;20228;-75
2022/04/01 13:45:43;;;;;;;111.37;34.83;;;;;;;;;;5075475;28;20299;-75
2022/04/01 13:48:10;;;;;;;92.23;31.57;;;;;;;;;;5075628;28;20446;-75
2022/04/01 13:50:39;;;;;;;103.23;32.57;;;;;;;;;;5075529;28;20228;-75
2022/04/01 13:53:09;;;;;;;117.70;32.83;;;;;;;;;;5075479;28;20232;-75
2022/04/01 13:55:37;;;;;;;100.97;31.70;;;;;;;;;;5075235;28;20208;-76
2022/04/01 13:58:04;;;;;;;119.30;32.53;;;;;;;;;;5074291;28;20223;-75
2022/04/01 14:00:31;;;;;;;103.90;31.60;;;;;;;;;;5074355;28;20188;-76
2022/04/01 14:02:59;;;;;;;107.37;31.87;;;;;;;;;;5081737;28;20244;-75
2022/04/01 14:05:26;;;;;;;133.73;35.50;;;;;;;;;;5074375;28;20283;-75
2022/04/01 14:07:53;;;;;;;123.73;35.47;;;;;;;;;;5073757;28;20242;-75
2022/04/01 14:10:25;;;;;;;172.93;38.43;;;;;;;;;;5075027;28;20271;-75
2022/04/01 14:12:54;;;;;;;138.33;38.63;;;;;;;;;;5074776;28;20204;-76
2022/04/01 14:15:24;;;;;;;150.53;39.67;;;;;;;;;;5074617;28;20216;-76
2022/04/01 14:17:51;;;;;;;210.40;41.37;;;;;;;;;;5076803;28;20224;-81
2022/04/01 14:20:28;;;;;;;162.60;40.53;;;;;;;;;;5078584;28;20345;-78
2022/04/01 14:22:58;;;;;;;143.00;43.83;;;;;;;;;;5076243;28;20723;-83
2022/04/01 14:25:30;;;;;;;148.90;40.93;;;;;;;;;;5072410;28;20193;-76
2022/04/01 14:27:57;;;;;;;128.13;39.07;;;;;;;;;;5073578;28;20236;-76
2022/04/01 14:30:25;;;;;;;138.90;40.77;;;;;;;;;;5072977;28;20229;-78
2022/04/01 14:32:57;;;;;;;147.77;39.30;;;;;;;;;;5076622;28;20197;-76
2022/04/01 14:35:25;;;;;;;125.33;38.37;;;;;;;;;;5073932;28;20197;-76
2022/04/01 14:37:52;;;;;;;168.93;42.07;;;;;;;;;;5070303;28;20221;-76
2022/04/01 14:40:19;;;;;;;161.63;45.27;;;;;;;;;;5073542;28;20200;-77
2022/04/01 14:42:48;;;;;;;191.63;45.33;;;;;;;;;;5073918;28;20209;-76
2022/04/01 14:45:15;;;;;;;158.40;44.77;;;;;;;;;;5072932;28;20682;-76
2022/04/01 14:47:43;;;;;;;161.03;43.43;;;;;;;;;;5074392;28;20208;-76
2022/04/01 14:50:11;;;;;;;148.47;43.93;;;;;;;;;;5074056;28;20220;-76
2022/04/01 14:52:38;;;;;;;222.30;47.07;;;;;;;;;;5074055;28;20246;-76
2022/04/01 14:55:07;;;;;;;193.90;44.60;;;;;;;;;;5073051;28;20208;-76
2022/04/01 14:57:36;;;;;;;194.83;44.37;;;;;;;;;;5074080;28;20204;-76